createdAt,value
2023-03-06T00:00:49.770Z,99929.28
2023-03-06T00:03:16.955Z,99936.09
2023-03-06T00:05:44.046Z,99955.00
2023-03-06T00:08:11.100Z,99958.44
2023-03-06T00:10:38.311Z,99954.13
2023-03-06T00:13:10.947Z,99954.41
2023-03-06T00:15:37.778Z,99944.97
2023-03-06T00:18:05.729Z,99953.59
2023-03-06T00:20:33.931Z,99957.31
2023-03-06T00:23:00.708Z,99940.69
2023-03-06T00:25:27.686Z,99924.59
2023-03-06T00:27:54.459Z,99934.47
2023-03-06T00:30:25.416Z,99929.72
2023-03-06T00:32:53.289Z,99928.66
2023-03-06T00:35:20.571Z,99921.84
2023-03-06T00:37:47.583Z,99927.09
2023-03-06T00:40:17.121Z,99927.25
2023-03-06T00:42:44.594Z,99908.31
2023-03-06T00:45:13.371Z,99920.00
2023-03-06T00:47:40.721Z,99927.63
2023-03-06T00:50:08.595Z,99920.44
2023-03-06T00:52:36.369Z,99923.06
2023-03-06T00:55:03.837Z,99910.19
2023-03-06T00:57:30.576Z,99898.00
2023-03-06T00:59:57.537Z,99906.47
2023-03-06T01:02:24.510Z,99889.94
2023-03-06T01:04:54.580Z,99896.31
2023-03-06T01:07:21.409Z,99895.50
2023-03-06T01:09:48.176Z,99892.06
2023-03-06T01:12:15.344Z,99893.69
2023-03-06T01:14:42.201Z,99876.47
2023-03-06T01:17:10.013Z,99883.72
2023-03-06T01:19:37.076Z,99885.38
2023-03-06T01:22:04.183Z,99881.78
2023-03-06T01:24:31.646Z,99878.44
2023-03-06T01:26:58.429Z,99885.38
2023-03-06T01:29:26.587Z,99860.81
2023-03-06T01:31:53.530Z,99873.88
2023-03-06T01:34:20.881Z,99859.78
2023-03-06T01:36:47.660Z,99870.88
2023-03-06T01:39:14.460Z,99845.78
2023-03-06T01:41:41.370Z,99862.41
2023-03-06T01:44:11.006Z,99858.56
2023-03-06T01:46:42.953Z,99836.06
2023-03-06T01:49:09.658Z,99863.13
2023-03-06T01:51:48.744Z,99863.00
2023-03-06T01:54:21.686Z,99850.94
2023-03-06T01:56:52.766Z,99856.88
2023-03-06T01:59:21.898Z,99844.81
2023-03-06T02:01:49.805Z,99843.56
2023-03-06T02:04:17.909Z,99855.91
2023-03-06T02:06:45.011Z,99844.44
2023-03-06T02:09:13.650Z,99845.41
2023-03-06T02:11:44.150Z,99845.84
2023-03-06T02:14:14.260Z,99849.31
2023-03-06T02:16:42.120Z,99825.06
2023-03-06T02:19:29.463Z,99843.09
2023-03-06T02:21:56.507Z,99843.91
2023-03-06T02:24:44.904Z,99837.00
2023-03-06T02:27:14.514Z,99825.47
2023-03-06T02:29:41.971Z,99837.00
2023-03-06T02:32:09.722Z,99830.91
2023-03-06T02:34:39.322Z,99838.91
2023-03-06T02:37:11.117Z,99838.91
2023-03-06T02:39:46.547Z,99828.69
2023-03-06T02:42:22.138Z,99823.09
2023-03-06T02:44:49.753Z,99812.41
2023-03-06T02:47:16.517Z,99821.44
2023-03-06T02:49:43.327Z,99819.53
2023-03-06T02:52:10.403Z,99820.63
2023-03-06T02:54:39.265Z,99810.09
2023-03-06T02:57:06.922Z,99803.03
2023-03-06T02:59:34.303Z,99809.97
2023-03-06T03:02:02.410Z,99794.00
2023-03-06T03:04:29.170Z,99819.53
2023-03-06T03:06:56.961Z,99802.47
2023-03-06T03:09:25.177Z,99811.91
2023-03-06T03:11:52.228Z,99808.16
2023-03-06T03:14:19.372Z,99806.50
2023-03-06T03:16:47.538Z,99806.50
2023-03-06T03:19:14.672Z,99800.66
2023-03-06T03:21:42.662Z,99807.16
2023-03-06T03:24:09.566Z,99806.47
2023-03-06T03:26:36.714Z,99800.63
2023-03-06T03:29:09.824Z,99802.56
2023-03-06T03:31:36.835Z,99801.84
2023-03-06T03:34:04.305Z,99801.72
2023-03-06T03:36:34.672Z,99783.41
2023-03-06T03:39:03.557Z,99798.97
2023-03-06T03:41:30.618Z,99804.22
2023-03-06T03:43:57.462Z,99797.06
2023-03-06T03:46:24.708Z,99790.94
2023-03-06T03:48:52.885Z,99789.16
2023-03-06T03:51:20.073Z,99791.53
2023-03-06T03:53:51.030Z,99795.09
2023-03-06T03:56:21.257Z,99767.25
2023-03-06T03:58:57.849Z,99790.13
2023-03-06T04:01:27.875Z,99789.28
2023-03-06T04:03:55.011Z,99769.31
2023-03-06T04:06:21.771Z,99788.22
2023-03-06T04:08:48.551Z,99775.28
2023-03-06T04:11:15.912Z,99772.50
2023-03-06T04:13:43.302Z,99791.22
2023-03-06T04:16:10.272Z,99787.63
2023-03-06T04:18:38.659Z,99786.41
2023-03-06T04:21:06.377Z,99786.53
2023-03-06T04:23:33.644Z,99779.75
2023-03-06T04:26:00.476Z,99778.06
2023-03-06T04:28:27.777Z,99782.38
2023-03-06T04:30:54.569Z,99755.47
2023-03-06T04:33:21.666Z,99775.44
2023-03-06T04:35:48.799Z,99763.16
2023-03-06T04:38:21.265Z,99767.56
2023-03-06T04:40:49.774Z,99756.50
2023-03-06T04:43:17.100Z,99747.06
2023-03-06T04:45:44.088Z,99735.84
2023-03-06T04:48:14.466Z,99751.91
2023-03-06T04:50:41.851Z,99748.34
2023-03-06T04:53:09.629Z,99754.13
2023-03-06T04:55:36.553Z,99740.19
2023-03-06T04:58:03.362Z,99711.50
2023-03-06T05:00:33.388Z,99736.72
2023-03-06T05:03:00.936Z,99734.66
2023-03-06T05:05:28.360Z,99741.84
2023-03-06T05:07:55.814Z,99735.06
2023-03-06T05:10:23.099Z,99730.75
2023-03-06T05:12:49.838Z,99730.47
2023-03-06T05:15:17.487Z,99716.34
2023-03-06T05:17:44.575Z,99727.31
2023-03-06T05:20:12.784Z,99732.28
2023-03-06T05:22:39.670Z,99709.44
2023-03-06T05:25:06.916Z,99693.75
2023-03-06T05:27:33.960Z,99728.84
2023-03-06T05:30:00.971Z,99730.38
2023-03-06T05:32:28.476Z,99731.06
2023-03-06T05:34:55.723Z,99715.00
2023-03-06T05:37:25.730Z,99722.50
2023-03-06T05:39:53.028Z,99722.50
2023-03-06T05:42:19.917Z,99726.63
2023-03-06T05:44:46.661Z,99720.69
2023-03-06T05:47:13.649Z,99727.47
2023-03-06T05:49:40.543Z,99731.88
2023-03-06T05:52:08.917Z,99731.34
2023-03-06T05:54:37.135Z,99714.69
2023-03-06T05:57:05.165Z,99733.00
2023-03-06T05:59:33.097Z,99740.88
2023-03-06T06:02:01.409Z,99720.78
2023-03-06T06:04:28.517Z,99738.25
2023-03-06T06:06:58.175Z,99712.78
2023-03-06T06:09:25.942Z,99738.41
2023-03-06T06:11:59.946Z,99734.81
2023-03-06T06:14:26.952Z,99732.19
2023-03-06T06:16:53.896Z,99741.75
2023-03-06T06:19:21.774Z,99722.59
2023-03-06T06:21:53.986Z,99739.78
2023-03-06T06:24:23.103Z,99729.81
2023-03-06T06:26:51.864Z,99727.19
2023-03-06T06:29:19.123Z,99737.59
2023-03-06T06:31:46.198Z,99734.97
2023-03-06T06:34:14.014Z,99734.44
2023-03-06T06:36:41.802Z,99732.50
2023-03-06T06:39:09.854Z,99731.53
2023-03-06T06:41:55.221Z,99711.44
2023-03-06T06:44:23.719Z,99733.63
2023-03-06T06:49:38.125Z,99735.72
2023-03-06T06:52:06.219Z,99734.47
2023-03-06T06:54:34.426Z,99729.91
2023-03-06T06:57:01.129Z,99731.00
2023-03-06T06:59:27.974Z,99721.19
2023-03-06T07:01:54.701Z,99722.44
2023-03-06T07:04:21.727Z,99726.59
2023-03-06T07:06:48.602Z,99701.38
2023-03-06T07:09:15.376Z,99723.97
2023-03-06T07:11:42.399Z,99733.09
2023-03-06T07:14:09.176Z,99731.97
2023-03-06T07:16:36.024Z,99735.19
2023-03-06T07:19:02.812Z,99714.69
2023-03-06T07:21:29.487Z,99739.63
2023-03-06T07:23:57.589Z,99742.66
2023-03-06T07:26:26.232Z,99734.34
2023-03-06T07:28:53.819Z,99741.16
2023-03-06T07:31:23.264Z,99738.75
2023-03-06T07:33:50.858Z,99731.72
2023-03-06T07:36:18.443Z,99740.59
2023-03-06T07:38:45.348Z,99741.25
2023-03-06T07:41:13.838Z,99742.38
2023-03-06T07:43:41.731Z,99743.22
2023-03-06T07:46:09.347Z,99742.63
2023-03-06T07:48:37.718Z,99727.53
2023-03-06T07:51:07.197Z,99709.13
2023-03-06T07:53:34.961Z,99724.16
2023-03-06T07:56:08.570Z,99727.19
2023-03-06T07:58:36.700Z,99722.63
2023-03-06T08:01:10.313Z,99716.91
2023-03-06T08:03:37.676Z,99712.97
2023-03-06T08:06:08.949Z,99708.25
2023-03-06T08:08:37.252Z,99704.97
2023-03-06T08:11:04.114Z,99710.91
2023-03-06T08:13:30.994Z,99708.06
2023-03-06T08:15:57.845Z,99683.94
2023-03-06T08:18:24.619Z,99706.03
2023-03-06T08:21:00.532Z,99706.38
2023-03-06T08:23:27.264Z,99702.03
2023-03-06T08:25:59.489Z,99698.88
2023-03-06T08:28:26.485Z,99698.94
2023-03-06T08:30:53.648Z,99700.22
2023-03-06T08:33:20.688Z,99695.66
2023-03-06T08:35:47.509Z,99702.88
2023-03-06T08:38:14.762Z,99704.22
2023-03-06T08:40:41.536Z,99693.94
2023-03-06T08:43:13.995Z,99693.03
2023-03-06T08:45:41.270Z,99701.13
2023-03-06T08:48:08.177Z,99703.66
2023-03-06T08:50:35.158Z,99712.25
2023-03-06T08:53:01.946Z,99700.84
2023-03-06T08:55:28.712Z,99699.69
2023-03-06T08:57:55.437Z,99696.50
2023-03-06T09:00:22.430Z,99689.25
2023-03-06T09:02:49.281Z,99663.94
2023-03-06T09:05:16.055Z,99686.53
2023-03-06T09:07:42.989Z,99667.38
2023-03-06T09:10:15.476Z,99689.13
2023-03-06T09:12:52.488Z,99684.88
2023-03-06T09:15:22.333Z,99688.47
2023-03-06T09:17:49.290Z,99674.06
2023-03-06T09:20:17.324Z,99654.06
2023-03-06T09:22:45.598Z,99666.53
2023-03-06T09:25:14.300Z,99634.16
2023-03-06T09:27:41.292Z,99634.03
2023-03-06T09:30:09.182Z,99638.78
2023-03-06T09:32:36.036Z,99644.25
2023-03-06T09:35:02.882Z,99645.09
2023-03-06T09:37:29.842Z,99639.31
2023-03-06T09:39:57.820Z,99642.97
2023-03-06T09:42:25.183Z,99646.25
2023-03-06T09:44:55.633Z,99649.75
2023-03-06T09:47:38.354Z,99643.19
2023-03-06T09:50:27.195Z,99636.41
2023-03-06T09:53:15.192Z,99638.22
2023-03-06T09:55:46.114Z,99638.06
2023-03-06T09:58:30.907Z,99635.59
2023-03-06T10:01:03.787Z,99616.91
2023-03-06T10:03:47.484Z,99618.56
2023-03-06T10:06:26.507Z,99624.22
2023-03-06T10:09:01.463Z,99603.84
2023-03-06T10:11:35.906Z,99615.28
2023-03-06T10:14:24.651Z,99619.56
2023-03-06T10:16:51.686Z,99614.78
2023-03-06T10:19:20.953Z,99607.50
2023-03-06T10:22:06.104Z,99607.50
2023-03-06T10:25:00.372Z,99611.78
2023-03-06T10:27:48.335Z,99602.84
2023-03-06T10:30:33.935Z,99604.19
2023-03-06T10:33:25.921Z,99601.19
2023-03-06T10:35:55.961Z,99608.16
2023-03-06T10:38:37.539Z,99599.22
2023-03-06T10:41:13.532Z,99600.22
2023-03-06T10:44:03.817Z,99602.13
2023-03-06T10:46:37.871Z,99599.97
2023-03-06T10:49:22.722Z,99596.44
2023-03-06T10:51:57.504Z,99598.75
2023-03-06T10:54:24.563Z,99569.06
2023-03-06T10:56:51.381Z,99584.78
2023-03-06T10:59:23.033Z,99584.97
2023-03-06T11:01:52.862Z,99587.69
2023-03-06T11:04:31.993Z,99580.75
2023-03-06T11:07:27.287Z,99569.81
2023-03-06T11:09:57.119Z,99559.56
2023-03-06T11:12:32.929Z,99565.88
2023-03-06T11:15:23.674Z,99547.44
2023-03-06T11:18:36.450Z,99545.47
2023-03-06T11:21:07.436Z,99544.97
2023-03-06T11:23:42.854Z,99530.22
2023-03-06T11:26:15.669Z,99539.84
2023-03-06T11:28:45.062Z,99532.38
2023-03-06T11:31:24.104Z,99507.41
2023-03-06T11:33:56.782Z,99519.34
2023-03-06T11:36:40.122Z,99508.59
2023-03-06T11:39:28.019Z,99515.88
2023-03-06T11:42:13.410Z,99512.38
2023-03-06T11:45:03.063Z,99498.50
2023-03-06T11:47:36.629Z,99499.34
2023-03-06T11:50:35.736Z,99499.16
2023-03-06T11:53:05.653Z,99479.31
2023-03-06T11:55:50.991Z,99488.75
2023-03-06T11:58:23.922Z,99486.91
2023-03-06T12:01:09.373Z,99475.50
2023-03-06T12:04:03.975Z,99478.50
2023-03-06T12:06:51.132Z,99474.81
2023-03-06T12:09:55.507Z,99480.81
2023-03-06T12:12:34.111Z,99478.00
2023-03-06T12:15:22.649Z,99472.88
2023-03-06T12:18:13.279Z,99472.41
2023-03-06T12:21:07.245Z,99462.28
2023-03-06T12:23:43.010Z,99461.47
2023-03-06T12:26:15.909Z,99454.88
2023-03-06T12:28:50.353Z,99452.22
2023-03-06T12:31:33.998Z,99459.16
2023-03-06T12:34:07.925Z,99440.81
2023-03-06T12:37:00.767Z,99438.66
2023-03-06T12:40:06.977Z,99440.16
2023-03-06T12:42:59.353Z,99436.19
2023-03-06T12:45:37.113Z,99431.88
2023-03-06T12:48:14.985Z,99431.75
2023-03-06T12:50:44.572Z,99414.22
2023-03-06T12:53:22.766Z,99409.91
2023-03-06T12:55:51.361Z,99401.50
2023-03-06T12:58:57.255Z,99413.06
2023-03-06T13:02:12.044Z,99431.88
2023-03-06T13:04:45.607Z,99420.50
2023-03-06T13:07:15.421Z,99422.31
2023-03-06T13:10:05.749Z,99417.19
2023-03-06T13:12:55.811Z,99423.31
2023-03-06T13:15:29.290Z,99422.16
2023-03-06T13:17:56.928Z,99424.28
2023-03-06T13:20:30.071Z,99408.75
2023-03-06T13:22:57.261Z,99437.34
2023-03-06T13:25:23.929Z,99432.56
2023-03-06T13:28:03.350Z,99406.59
2023-03-06T13:30:39.917Z,99432.88
2023-03-06T13:33:30.104Z,99429.88
2023-03-06T13:35:58.284Z,99425.09
2023-03-06T13:38:53.112Z,99426.22
2023-03-06T13:41:22.990Z,99425.75
2023-03-06T13:43:55.671Z,99422.44
2023-03-06T13:46:27.897Z,99411.06
2023-03-06T13:49:13.106Z,99414.38
2023-03-06T13:52:18.292Z,99418.31
2023-03-06T13:54:54.032Z,99412.88
2023-03-06T13:57:54.500Z,99413.69
2023-03-06T14:00:59.157Z,99406.41
2023-03-06T14:03:51.293Z,99399.50
2023-03-06T14:06:37.330Z,99404.44
2023-03-06T14:09:08.315Z,99384.63
2023-03-06T14:11:36.383Z,99397.84
2023-03-06T14:14:03.842Z,99395.19
2023-03-06T14:16:49.495Z,99382.16
2023-03-06T14:19:19.246Z,99378.19
2023-03-06T14:21:51.205Z,99398.81
2023-03-06T14:24:20.163Z,99376.88
2023-03-06T14:26:51.385Z,99394.69
2023-03-06T14:29:23.400Z,99382.31
2023-03-06T14:31:52.965Z,99396.19
2023-03-06T14:34:26.898Z,99395.03
2023-03-06T14:36:55.965Z,99393.88
2023-03-06T14:39:41.823Z,99387.28
2023-03-06T14:42:15.507Z,99367.63
2023-03-06T14:44:42.858Z,99382.31
2023-03-06T14:47:28.794Z,99381.47
2023-03-06T14:50:33.617Z,99383.78
2023-03-06T14:53:25.457Z,99377.69
2023-03-06T14:55:58.012Z,99369.75
2023-03-06T14:58:38.869Z,99372.41
2023-03-06T15:01:08.997Z,99356.88
2023-03-06T15:03:44.447Z,99369.75
2023-03-06T15:06:20.097Z,99369.25
2023-03-06T15:08:52.953Z,99368.44
2023-03-06T15:11:19.763Z,99366.78
2023-03-06T15:14:00.799Z,99371.56
2023-03-06T15:16:30.171Z,99367.44
2023-03-06T15:19:00.573Z,99372.72
2023-03-06T15:21:36.303Z,99356.06
2023-03-06T15:24:31.648Z,99367.09
2023-03-06T15:27:03.492Z,99372.72
2023-03-06T15:29:30.657Z,99367.59
2023-03-06T15:32:33.574Z,99377.97
2023-03-06T15:35:25.547Z,99384.56
2023-03-06T15:37:53.057Z,99384.75
2023-03-06T15:40:22.347Z,99371.69
2023-03-06T15:42:52.358Z,99387.03
2023-03-06T15:45:20.732Z,99383.72
2023-03-06T15:47:49.199Z,99384.06
2023-03-06T15:50:21.372Z,99390.50
2023-03-06T15:52:49.359Z,99366.00
2023-03-06T15:55:18.395Z,99373.31
2023-03-06T15:57:51.726Z,99358.44
2023-03-06T16:00:28.691Z,99365.38
2023-03-06T16:02:58.951Z,99374.28
2023-03-06T16:05:27.481Z,99355.44
2023-03-06T16:07:55.136Z,99370.16
2023-03-06T16:10:24.302Z,99380.72
2023-03-06T16:12:54.537Z,99369.97
2023-03-06T16:15:25.384Z,99387.28
2023-03-06T16:17:52.300Z,99371.94
2023-03-06T16:20:21.555Z,99360.53
2023-03-06T16:22:53.837Z,99372.13
2023-03-06T16:25:22.686Z,99368.94
2023-03-06T16:27:58.120Z,99360.38
2023-03-06T16:30:35.540Z,99365.66
2023-03-06T16:33:03.537Z,99368.47
2023-03-06T16:35:30.463Z,99373.91
2023-03-06T16:37:58.685Z,99332.91
2023-03-06T16:40:32.607Z,99347.94
2023-03-06T16:42:59.639Z,99362.50
2023-03-06T16:45:26.583Z,99366.81
2023-03-06T16:47:54.377Z,99347.13
2023-03-06T16:50:30.156Z,99345.78
2023-03-06T16:52:58.275Z,99367.59
2023-03-06T16:55:26.892Z,99363.59
2023-03-06T16:57:54.776Z,99362.13
2023-03-06T17:00:24.623Z,99364.94
2023-03-06T17:02:52.373Z,99366.09
2023-03-06T17:05:19.968Z,99347.03
2023-03-06T17:07:47.543Z,99371.53
2023-03-06T17:10:16.263Z,99346.53
2023-03-06T17:12:43.699Z,99365.56
2023-03-06T17:15:11.642Z,99365.56
2023-03-06T17:17:38.478Z,99378.75
2023-03-06T17:20:11.877Z,99378.75
2023-03-06T17:22:39.428Z,99377.06
2023-03-06T17:25:07.636Z,99382.06
2023-03-06T17:27:35.477Z,99368.59
2023-03-06T17:30:02.659Z,99384.09
2023-03-06T17:32:29.482Z,99394.19
2023-03-06T17:34:56.638Z,99403.09
2023-03-06T17:37:23.464Z,99393.47
2023-03-06T17:39:50.203Z,99412.00
2023-03-06T17:42:17.215Z,99413.13
2023-03-06T17:44:43.948Z,99398.22
2023-03-06T17:47:10.879Z,99412.47
2023-03-06T17:49:37.804Z,99398.06
2023-03-06T17:52:05.752Z,99427.00
2023-03-06T17:54:33.379Z,99401.19
2023-03-06T17:57:03.421Z,99413.94
2023-03-06T17:59:33.966Z,99408.78
2023-03-06T18:02:01.884Z,99405.31
2023-03-06T18:04:29.082Z,99409.97
2023-03-06T18:06:57.126Z,99409.84
2023-03-06T18:09:24.884Z,99408.94
2023-03-06T18:11:51.696Z,99411.06
2023-03-06T18:14:18.491Z,99411.91
2023-03-06T18:16:45.376Z,99417.31
2023-03-06T18:19:12.260Z,99407.53
2023-03-06T18:21:40.110Z,99395.75
2023-03-06T18:24:07.464Z,99423.63
2023-03-06T18:26:34.198Z,99425.59
2023-03-06T18:29:04.464Z,99421.44
2023-03-06T18:31:40.222Z,99434.31
2023-03-06T18:34:10.289Z,99436.97
2023-03-06T18:36:37.418Z,99441.63
2023-03-06T18:39:08.703Z,99425.53
2023-03-06T18:41:36.229Z,99447.66
2023-03-06T18:44:03.121Z,99450.75
2023-03-06T18:46:32.541Z,99463.09
2023-03-06T18:48:59.858Z,99456.84
2023-03-06T18:51:27.463Z,99427.06
2023-03-06T18:53:57.581Z,99428.19
2023-03-06T18:56:24.838Z,99451.81
2023-03-06T18:58:52.117Z,99444.22
2023-03-06T19:01:19.090Z,99450.31
2023-03-06T19:03:46.376Z,99445.34
2023-03-06T19:06:14.889Z,99414.28
2023-03-06T19:08:41.916Z,99430.97
2023-03-06T19:11:11.854Z,99434.66
2023-03-06T19:13:39.111Z,99429.38
2023-03-06T19:16:06.691Z,99434.66
2023-03-06T19:18:34.058Z,99429.53
2023-03-06T19:21:14.348Z,99436.31
2023-03-06T19:23:41.830Z,99425.41
2023-03-06T19:26:09.480Z,99436.78
2023-03-06T19:28:38.488Z,99442.56
2023-03-06T19:31:19.618Z,99444.69
2023-03-06T19:33:48.305Z,99442.72
2023-03-06T19:36:16.910Z,99446.16
2023-03-06T19:38:43.731Z,99452.28
2023-03-06T19:41:13.487Z,99451.16
2023-03-06T19:43:41.796Z,99443.38
2023-03-06T19:46:15.119Z,99434.44
2023-03-06T19:48:42.654Z,99435.13
2023-03-06T19:51:10.503Z,99442.72
2023-03-06T19:53:37.848Z,99452.50
2023-03-06T19:56:06.912Z,99453.47
2023-03-06T19:58:33.983Z,99449.50
2023-03-06T20:01:10.376Z,99448.97
2023-03-06T20:03:37.222Z,99459.06
2023-03-06T20:06:08.930Z,99462.53
2023-03-06T20:08:36.507Z,99441.38
2023-03-06T20:11:04.116Z,99447.91
2023-03-06T20:13:31.586Z,99463.47
2023-03-06T20:16:02.914Z,99473.38
2023-03-06T20:18:29.719Z,99471.00
2023-03-06T20:21:04.621Z,99473.94
2023-03-06T20:23:32.094Z,99481.72
2023-03-06T20:26:09.548Z,99478.19
2023-03-06T20:28:39.111Z,99482.25
2023-03-06T20:31:11.217Z,99492.25
2023-03-06T20:33:38.120Z,99497.00
2023-03-06T20:36:11.585Z,99496.47
2023-03-06T20:38:39.092Z,99499.81
2023-03-06T20:41:05.759Z,99481.19
2023-03-06T20:43:32.492Z,99498.88
2023-03-06T20:46:02.566Z,99497.59
2023-03-06T20:48:29.756Z,99491.97
2023-03-06T20:51:21.022Z,99485.69
2023-03-06T20:53:49.233Z,99466.91
2023-03-06T20:56:19.336Z,99487.50
2023-03-06T20:58:46.215Z,99475.53
2023-03-06T21:01:20.946Z,99486.53
2023-03-06T21:03:48.464Z,99486.53
2023-03-06T21:06:15.800Z,99443.84
2023-03-06T21:08:43.370Z,99476.00
2023-03-06T21:11:10.132Z,99471.03
2023-03-06T21:13:37.032Z,99474.66
2023-03-06T21:16:09.821Z,99470.50
2023-03-06T21:18:36.939Z,99482.16
2023-03-06T21:21:09.154Z,99466.13
2023-03-06T21:23:36.829Z,99481.84
2023-03-06T21:26:03.822Z,99477.19
2023-03-06T21:28:30.954Z,99472.81
2023-03-06T21:31:00.682Z,99479.28
2023-03-06T21:33:27.839Z,99475.69
2023-03-06T21:35:54.789Z,99480.03
2023-03-06T21:38:21.590Z,99496.44
2023-03-06T21:40:48.322Z,99492.03
2023-03-06T21:43:17.467Z,99469.19
2023-03-06T21:45:48.655Z,99489.91
2023-03-06T21:48:15.877Z,99488.94
2023-03-06T21:50:42.619Z,99488.63
2023-03-06T21:53:09.761Z,99490.16
2023-03-06T21:55:40.897Z,99485.03
2023-03-06T21:58:07.686Z,99478.00
2023-03-06T22:00:36.489Z,99479.13
2023-03-06T22:03:04.871Z,99495.41
2023-03-06T22:05:32.085Z,99498.88
2023-03-06T22:07:59.269Z,99498.19
2023-03-06T22:10:26.038Z,99490.53
2023-03-06T22:12:52.825Z,99472.47
2023-03-06T22:15:21.847Z,99470.34
2023-03-06T22:17:48.873Z,99489.69
2023-03-06T22:20:16.039Z,99494.00
2023-03-06T22:22:43.709Z,99483.53
2023-03-06T22:25:11.898Z,99495.25
2023-03-06T22:27:39.012Z,99489.47
2023-03-06T22:30:06.359Z,99491.13
2023-03-06T22:32:33.373Z,99488.31
2023-03-06T22:35:00.156Z,99492.94
2023-03-06T22:37:26.869Z,99489.09
2023-03-06T22:39:53.618Z,99494.50
2023-03-06T22:42:20.359Z,99495.19
2023-03-06T22:44:47.206Z,99465.38
2023-03-06T22:47:14.033Z,99473.19
2023-03-06T22:49:40.774Z,99475.16
2023-03-06T22:52:07.466Z,99470.03
2023-03-06T22:54:34.362Z,99484.72
2023-03-06T22:57:01.090Z,99467.31
2023-03-06T22:59:27.835Z,99483.66
2023-03-06T23:01:54.582Z,99495.69
2023-03-06T23:04:21.382Z,99466.94
2023-03-06T23:06:48.244Z,99479.50
2023-03-06T23:09:23.395Z,99499.31
2023-03-06T23:12:11.556Z,99506.22
2023-03-06T23:14:57.064Z,99505.31
2023-03-06T23:17:42.311Z,99511.66
2023-03-06T23:20:28.437Z,99511.66
2023-03-06T23:23:13.965Z,99521.13
2023-03-06T23:25:40.730Z,99517.78
2023-03-06T23:28:07.702Z,99500.53
2023-03-06T23:30:34.813Z,99519.47
2023-03-06T23:33:01.515Z,99522.59
2023-03-06T23:35:28.391Z,99519.16
2023-03-06T23:37:55.310Z,99504.69
2023-03-06T23:40:22.340Z,99523.59
2023-03-06T23:42:49.401Z,99507.84
2023-03-06T23:45:16.760Z,99507.00
2023-03-06T23:47:43.521Z,99515.84
2023-03-06T23:50:13.502Z,99522.91
2023-03-06T23:52:40.693Z,99526.66
2023-03-06T23:55:07.843Z,99537.75
2023-03-06T23:57:34.796Z,99535.25
